Time;durP1;ratioP1;P1;durP2;ratioP2;P2;SDS_P1;SDS_P2;PMS_P1;PMS_P2;Temp;Humidity;BMP_temperature;BMP_pressure;BME280_temperature;BME280_humidity;BME280_pressure;Samples;Min_cycle;Max_cycle;Signal;HPM_P1;HPM_P2
2024/03/16 00:01:16;;;;;;;0.63;0.30;;;10.50;99.90;;;;;;5115498;27;20402;-50
2024/03/16 00:03:44;;;;;;;0.30;0.10;;;10.50;99.90;;;;;;5114741;27;20405;-50
2024/03/16 00:06:11;;;;;;;0.50;0.20;;;10.50;99.90;;;;;;5116803;27;20435;-53
2024/03/16 00:08:38;;;;;;;0.40;0.20;;;10.60;99.90;;;;;;5114565;27;20420;-49
2024/03/16 00:11:06;;;;;;;0.80;0.25;;;10.50;99.90;;;;;;5115978;27;20416;-47
2024/03/16 00:13:34;;;;;;;0.40;0.20;;;10.50;99.90;;;;;;5113878;27;20410;-47
2024/03/16 00:16:03;;;;;;;0.30;0.10;;;10.50;99.90;;;;;;5115403;27;20405;-48
2024/03/16 00:18:30;;;;;;;0.80;0.20;;;10.80;99.90;;;;;;5116649;27;20419;-49
2024/03/16 00:20:58;;;;;;;0.30;0.10;;;10.70;99.90;;;;;;5115212;27;20846;-48
2024/03/16 00:23:25;;;;;;;0.40;0.20;;;10.90;96.80;;;;;;5117385;27;20469;-52
2024/03/16 00:25:52;;;;;;;0.32;0.10;;;10.80;99.90;;;;;;5115820;27;21144;-48
2024/03/16 00:28:21;;;;;;;0.50;0.15;;;10.70;99.90;;;;;;5114381;27;20402;-47
2024/03/16 00:30:48;;;;;;;0.50;0.10;;;10.70;99.90;;;;;;5118374;27;20420;-50
2024/03/16 00:33:15;;;;;;;0.40;0.10;;;10.90;73.10;;;;;;5115988;27;20680;-49
2024/03/16 00:35:42;;;;;;;0.40;0.10;;;10.80;99.90;;;;;;5116153;27;20422;-46
2024/03/16 00:38:10;;;;;;;0.40;0.13;;;10.70;99.90;;;;;;5117516;27;20416;-48
2024/03/16 00:40:37;;;;;;;0.30;0.10;;;10.70;99.90;;;;;;5117584;27;20704;-51
2024/03/16 00:43:05;;;;;;;0.40;0.20;;;10.70;54.10;;;;;;5113780;27;20883;-47
2024/03/16 00:45:32;;;;;;;0.30;0.10;;;10.60;54.70;;;;;;5113587;27;20712;-48
2024/03/16 00:48:00;;;;;;;0.40;0.10;;;10.50;71.50;;;;;;5115563;27;20421;-48
2024/03/16 00:50:27;;;;;;;0.30;0.10;;;10.50;74.60;;;;;;5115743;27;20689;-49
2024/03/16 00:52:54;;;;;;;1.00;0.10;;;10.50;67.00;;;;;;5113421;27;20422;-50
2024/03/16 00:55:21;;;;;;;0.70;0.10;;;10.50;64.70;;;;;;5116285;27;20407;-47
2024/03/16 00:57:51;;;;;;;0.40;0.10;;;10.40;68.00;;;;;;5126145;27;20802;-48
2024/03/16 01:00:18;;;;;;;0.40;0.10;;;10.40;75.60;;;;;;5114622;27;20418;-46
2024/03/16 01:02:45;;;;;;;0.30;0.10;;;10.30;74.30;;;;;;5114713;27;20733;-50
2024/03/16 01:05:13;;;;;;;0.50;0.10;;;10.30;73.00;;;;;;5114418;27;20433;-52
2024/03/16 01:07:40;;;;;;;0.30;0.10;;;10.40;76.20;;;;;;5115272;27;20543;-51
2024/03/16 01:10:10;;;;;;;0.30;0.10;;;10.40;96.60;;;;;;5115444;27;20406;-47
2024/03/16 01:12:41;;;;;;;0.30;0.10;;;10.30;85.60;;;;;;5114501;27;20742;-48
2024/03/16 01:15:09;;;;;;;0.40;0.20;;;10.20;96.10;;;;;;5115633;27;20438;-49
2024/03/16 01:17:37;;;;;;;0.40;0.20;;;10.40;92.50;;;;;;5121733;27;20424;-51
2024/03/16 01:20:05;;;;;;;0.30;0.10;;;10.30;75.60;;;;;;5119196;27;20844;-50
2024/03/16 01:22:33;;;;;;;0.40;0.10;;;10.20;85.00;;;;;;5113574;27;20502;-51
2024/03/16 01:25:00;;;;;;;0.40;0.10;;;10.30;80.60;;;;;;5122926;27;20457;-48
2024/03/16 01:27:27;;;;;;;0.40;0.10;;;10.20;85.00;;;;;;5119551;27;20481;-49
2024/03/16 01:29:54;;;;;;;0.30;0.10;;;10.30;99.90;;;;;;5113200;27;20418;-49
2024/03/16 01:32:21;;;;;;;0.40;0.10;;;10.20;89.00;;;;;;5120951;27;20840;-47
2024/03/16 01:34:48;;;;;;;0.30;0.10;;;10.20;93.40;;;;;;5112131;27;20506;-49
2024/03/16 01:37:16;;;;;;;0.30;0.10;;;10.20;91.00;;;;;;5118594;27;20509;-51
2024/03/16 01:39:43;;;;;;;0.40;0.20;;;10.10;76.30;;;;;;5115514;27;20477;-54
2024/03/16 01:42:10;;;;;;;0.55;0.20;;;10.10;93.40;;;;;;5115042;27;20424;-50
2024/03/16 01:44:37;;;;;;;0.30;0.10;;;10.10;92.10;;;;;;5114667;27;20486;-49
2024/03/16 01:47:04;;;;;;;0.40;0.10;;;10.20;81.10;;;;;;5114614;27;20482;-54
2024/03/16 01:49:31;;;;;;;0.40;0.10;;;10.20;85.20;;;;;;5114470;27;20428;-49
2024/03/16 01:51:59;;;;;;;0.70;0.10;;;10.10;79.70;;;;;;5113805;27;20417;-50
2024/03/16 01:54:26;;;;;;;0.30;0.10;;;10.10;99.90;;;;;;5115503;27;20477;-54
2024/03/16 01:56:53;;;;;;;0.30;0.10;;;10.10;93.90;;;;;;5114069;27;20413;-51
2024/03/16 01:59:20;;;;;;;0.30;0.10;;;10.10;95.90;;;;;;5118700;27;20428;-49
2024/03/16 02:01:47;;;;;;;0.30;0.10;;;10.10;66.40;;;;;;5122369;27;20419;-50
2024/03/16 02:04:14;;;;;;;0.30;0.10;;;10.10;91.60;;;;;;5112079;27;20425;-49
2024/03/16 02:06:41;;;;;;;0.50;0.10;;;10.10;72.10;;;;;;5110244;27;20512;-48
2024/03/16 02:09:10;;;;;;;0.30;0.10;;;10.00;80.30;;;;;;5113469;27;21480;-48
2024/03/16 02:11:37;;;;;;;0.30;0.10;;;10.00;97.60;;;;;;5111998;27;20758;-49
2024/03/16 02:14:04;;;;;;;0.45;0.10;;;10.10;94.70;;;;;;5110881;27;20449;-48
2024/03/16 02:16:31;;;;;;;0.60;0.10;;;10.10;88.40;;;;;;5113210;27;20501;-50
2024/03/16 02:18:58;;;;;;;0.30;0.10;;;10.10;91.20;;;;;;5112146;27;20419;-50
2024/03/16 02:21:25;;;;;;;0.30;0.10;;;10.10;92.70;;;;;;5112652;27;20724;-52
2024/03/16 02:23:52;;;;;;;0.30;0.10;;;10.10;89.30;;;;;;5114766;27;20425;-46
2024/03/16 02:26:20;;;;;;;0.70;0.10;;;10.10;91.70;;;;;;5112603;27;20686;-48
2024/03/16 02:28:47;;;;;;;0.30;0.10;;;10.00;91.60;;;;;;5113694;27;20415;-47
2024/03/16 02:31:14;;;;;;;0.40;0.10;;;10.00;99.90;;;;;;5110319;27;20401;-50
2024/03/16 02:33:41;;;;;;;0.40;0.10;;;10.00;99.90;;;;;;5111761;27;20721;-50
2024/03/16 02:36:08;;;;;;;0.60;0.13;;;10.00;99.90;;;;;;5121212;27;20410;-48
2024/03/16 02:38:35;;;;;;;0.60;0.20;;;10.00;99.90;;;;;;5110965;27;20421;-50
2024/03/16 02:41:02;;;;;;;0.70;0.10;;;10.00;99.90;;;;;;5111505;27;20418;-49
2024/03/16 02:43:30;;;;;;;0.30;0.10;;;10.10;99.90;;;;;;5111323;27;20425;-52
2024/03/16 02:45:58;;;;;;;0.50;0.10;;;10.10;99.90;;;;;;5112760;27;20434;-46
2024/03/16 02:48:26;;;;;;;0.90;0.20;;;10.10;99.90;;;;;;5112912;27;20755;-51
2024/03/16 02:50:53;;;;;;;0.60;0.10;;;10.00;92.20;;;;;;5113136;27;20521;-52
2024/03/16 02:53:20;;;;;;;0.40;0.20;;;10.00;99.90;;;;;;5112096;27;20696;-47
2024/03/16 02:55:47;;;;;;;0.90;0.13;;;9.90;99.90;;;;;;5112500;27;20465;-49
2024/03/16 02:58:14;;;;;;;0.32;0.10;;;9.80;99.90;;;;;;5111904;27;20414;-50
2024/03/16 03:00:41;;;;;;;0.60;0.10;;;9.90;99.90;;;;;;5121167;27;20416;-49
2024/03/16 03:03:08;;;;;;;0.40;0.10;;;9.90;99.90;;;;;;5114185;27;20817;-49
2024/03/16 03:05:35;;;;;;;0.30;0.10;;;9.90;99.90;;;;;;5097361;28;20429;-51
2024/03/16 03:08:04;;;;;;;2.10;0.10;;;10.10;99.90;;;;;;5089909;28;20845;-50
2024/03/16 03:10:32;;;;;;;0.30;0.10;;;10.10;99.90;;;;;;5105875;28;20486;-48
2024/03/16 03:13:01;;;;;;;0.40;0.10;;;10.10;99.90;;;;;;5089407;28;20418;-53
2024/03/16 03:15:28;;;;;;;0.40;0.10;;;10.10;99.90;;;;;;5090099;28;20515;-53
2024/03/16 03:17:55;;;;;;;0.30;0.10;;;10.10;89.60;;;;;;5086898;28;20434;-48
2024/03/16 03:20:23;;;;;;;0.40;0.10;;;10.10;81.10;;;;;;5092097;28;20825;-51
2024/03/16 03:22:50;;;;;;;0.30;0.10;;;10.10;73.90;;;;;;5088803;28;20712;-53
2024/03/16 03:25:18;;;;;;;0.50;0.10;;;10.20;71.40;;;;;;5094044;28;20894;-52
2024/03/16 03:27:46;;;;;;;0.30;0.10;;;10.10;62.20;;;;;;5089332;28;20412;-52
2024/03/16 03:30:13;;;;;;;0.30;0.10;;;10.20;87.50;;;;;;5088883;28;20423;-49
2024/03/16 03:32:40;;;;;;;0.40;0.10;;;10.20;86.80;;;;;;5087628;28;20809;-48
2024/03/16 03:35:07;;;;;;;0.40;0.10;;;10.20;86.70;;;;;;5088135;28;20421;-49
2024/03/16 03:37:34;;;;;;;0.30;0.10;;;10.20;99.90;;;;;;5086977;28;20700;-52
2024/03/16 03:40:01;;;;;;;0.30;0.10;;;10.20;99.90;;;;;;5088161;28;20472;-48
2024/03/16 03:42:33;;;;;;;0.30;0.10;;;10.10;99.90;;;;;;5089252;28;20410;-52
2024/03/16 03:45:24;;;;;;;0.90;0.10;;;10.10;99.90;;;;;;5087035;28;20527;-52
2024/03/16 03:48:02;;;;;;;0.90;0.10;;;10.10;99.90;;;;;;5090544;28;20422;-51
2024/03/16 03:50:31;;;;;;;0.40;0.10;;;10.00;99.90;;;;;;5090636;28;20444;-51
2024/03/16 03:53:01;;;;;;;0.30;0.10;;;10.00;99.90;;;;;;5085231;28;20716;-50
2024/03/16 03:55:28;;;;;;;0.40;0.10;;;10.10;99.90;;;;;;5090077;28;20437;-50
2024/03/16 03:57:55;;;;;;;0.80;0.10;;;10.10;99.90;;;;;;5087419;28;20409;-48
2024/03/16 04:00:22;;;;;;;0.40;0.10;;;10.10;99.90;;;;;;5087935;28;20430;-50
2024/03/16 04:02:49;;;;;;;0.30;0.10;;;10.10;99.90;;;;;;5087157;28;20423;-55
2024/03/16 04:05:16;;;;;;;0.40;0.15;;;10.30;99.90;;;;;;5084910;28;20428;-52
2024/03/16 04:07:43;;;;;;;0.30;0.10;;;10.30;99.90;;;;;;5088495;28;20475;-48
2024/03/16 04:10:10;;;;;;;0.30;0.10;;;10.40;99.90;;;;;;5086647;28;20416;-54
2024/03/16 04:12:37;;;;;;;0.40;0.20;;;10.30;99.90;;;;;;5085877;28;20424;-53
2024/03/16 04:15:05;;;;;;;0.60;0.20;;;10.30;99.90;;;;;;5085943;28;20416;-52
2024/03/16 04:17:32;;;;;;;1.10;0.10;;;10.30;99.90;;;;;;5088762;28;20416;-52
2024/03/16 04:19:59;;;;;;;0.30;0.10;;;10.30;99.90;;;;;;5086266;28;20421;-54
2024/03/16 04:22:26;;;;;;;0.43;0.15;;;10.40;99.90;;;;;;5085587;28;20428;-52
2024/03/16 04:24:53;;;;;;;0.30;0.10;;;10.40;99.90;;;;;;5091808;28;20833;-50
2024/03/16 04:27:20;;;;;;;0.30;0.10;;;10.40;99.90;;;;;;5087062;28;20487;-55
2024/03/16 04:29:48;;;;;;;0.35;0.10;;;10.30;99.90;;;;;;5090748;28;20427;-55
2024/03/16 04:32:15;;;;;;;0.40;0.10;;;10.40;99.90;;;;;;5090761;28;20566;-51
2024/03/16 04:34:42;;;;;;;0.50;0.20;;;10.50;99.90;;;;;;5089239;28;20420;-51
2024/03/16 04:37:09;;;;;;;0.40;0.20;;;10.50;99.90;;;;;;5091159;28;20410;-49
2024/03/16 04:39:43;;;;;;;0.50;0.20;;;10.40;99.90;;;;;;5089440;28;20841;-52
2024/03/16 04:42:10;;;;;;;0.50;0.20;;;10.40;99.90;;;;;;5091759;28;20427;-54
2024/03/16 04:44:37;;;;;;;0.40;0.20;;;10.40;99.90;;;;;;5089467;28;20468;-51
2024/03/16 04:47:04;;;;;;;0.40;0.20;;;10.30;99.90;;;;;;5091075;28;20449;-49
2024/03/16 04:49:31;;;;;;;0.50;0.20;;;10.30;99.90;;;;;;5091089;28;20409;-49
2024/03/16 04:51:58;;;;;;;0.60;0.20;;;10.20;99.90;;;;;;5093220;28;20410;-48
2024/03/16 04:54:26;;;;;;;0.40;0.20;;;10.00;99.90;;;;;;5093109;28;20433;-50
2024/03/16 04:56:53;;;;;;;0.65;0.20;;;9.90;99.90;;;;;;5089960;28;20429;-54
2024/03/16 04:59:20;;;;;;;0.40;0.20;;;9.80;99.90;;;;;;5091561;28;20702;-53
2024/03/16 05:01:47;;;;;;;0.47;0.20;;;9.80;99.90;;;;;;5091195;28;20418;-51
2024/03/16 05:04:14;;;;;;;0.90;0.30;;;9.70;99.90;;;;;;5088968;28;20420;-54
2024/03/16 05:06:41;;;;;;;0.50;0.30;;;9.70;99.90;;;;;;5090921;28;20903;-53
2024/03/16 05:09:09;;;;;;;1.20;0.30;;;9.70;99.90;;;;;;5090267;28;20420;-51
2024/03/16 05:11:36;;;;;;;0.60;0.40;;;9.60;99.90;;;;;;5091879;28;20447;-53
2024/03/16 05:14:05;;;;;;;0.50;0.20;;;9.60;99.90;;;;;;5090528;28;20619;-53
2024/03/16 05:16:33;;;;;;;1.00;0.20;;;9.60;99.90;;;;;;5090041;28;20421;-50
2024/03/16 05:19:02;;;;;;;0.50;0.20;;;9.60;99.90;;;;;;5091967;28;20487;-52
2024/03/16 05:21:29;;;;;;;0.70;0.20;;;9.70;99.90;;;;;;5092336;28;20415;-53
2024/03/16 05:23:56;;;;;;;1.05;0.20;;;9.60;99.90;;;;;;5092272;28;20478;-54
2024/03/16 05:26:23;;;;;;;0.70;0.10;;;9.60;99.90;;;;;;5090491;28;20445;-54
2024/03/16 05:28:50;;;;;;;0.60;0.30;;;9.80;99.90;;;;;;5091391;28;20868;-48
2024/03/16 05:31:17;;;;;;;0.40;0.10;;;9.70;99.90;;;;;;5090073;28;20418;-51
2024/03/16 05:33:44;;;;;;;0.52;0.20;;;9.80;99.90;;;;;;5092409;28;20428;-51
2024/03/16 05:36:12;;;;;;;0.80;0.30;;;9.80;99.90;;;;;;5089789;28;20477;-53
2024/03/16 05:38:40;;;;;;;0.57;0.20;;;9.70;99.90;;;;;;5089016;28;20506;-53
2024/03/16 05:41:07;;;;;;;0.70;0.30;;;9.80;99.90;;;;;;5088667;28;20769;-53
2024/03/16 05:43:34;;;;;;;0.50;0.20;;;9.70;99.90;;;;;;5092808;28;20866;-50
2024/03/16 05:46:01;;;;;;;0.77;0.30;;;9.80;99.90;;;;;;5107157;28;20412;-54
2024/03/16 05:48:29;;;;;;;1.17;0.20;;;9.80;99.90;;;;;;5086593;28;20869;-52
2024/03/16 05:50:56;;;;;;;2.10;0.30;;;9.80;99.90;;;;;;5092846;28;20454;-52
2024/03/16 05:53:23;;;;;;;0.50;0.20;;;9.80;99.90;;;;;;5092681;28;20497;-52
2024/03/16 05:55:50;;;;;;;1.10;0.20;;;9.80;99.90;;;;;;5091067;28;20488;-52
2024/03/16 05:58:18;;;;;;;0.40;0.20;;;9.80;99.90;;;;;;5090713;28;20419;-52
2024/03/16 06:00:45;;;;;;;1.10;0.20;;;9.90;99.90;;;;;;5092368;28;20778;-54
2024/03/16 06:03:12;;;;;;;0.30;0.10;;;9.90;99.90;;;;;;5091663;28;20484;-50
2024/03/16 06:05:40;;;;;;;0.30;0.10;;;10.00;99.90;;;;;;5090143;28;20764;-50
2024/03/16 06:08:07;;;;;;;0.40;0.10;;;9.90;99.90;;;;;;5089048;28;20428;-53
2024/03/16 06:10:34;;;;;;;0.50;0.20;;;10.00;99.90;;;;;;5089156;28;20827;-53
2024/03/16 06:13:02;;;;;;;0.50;0.20;;;10.10;99.90;;;;;;5089853;28;20408;-54
2024/03/16 06:15:29;;;;;;;0.40;0.10;;;10.10;99.90;;;;;;5105430;28;20421;-49
2024/03/16 06:17:56;;;;;;;0.80;0.10;;;10.10;99.90;;;;;;5090047;28;20420;-51
2024/03/16 06:20:23;;;;;;;0.40;0.20;;;10.10;99.90;;;;;;5087676;28;20423;-52
2024/03/16 06:22:50;;;;;;;0.80;0.20;;;10.20;99.90;;;;;;5089765;28;20473;-51
2024/03/16 06:25:20;;;;;;;0.70;0.20;;;10.10;99.90;;;;;;5087463;28;20408;-50
2024/03/16 06:27:50;;;;;;;0.40;0.20;;;10.10;99.90;;;;;;5094200;28;20710;-52
2024/03/16 06:30:17;;;;;;;0.60;0.30;;;10.10;99.90;;;;;;5090340;28;20451;-54
2024/03/16 06:33:05;;;;;;;0.80;0.30;;;10.10;99.90;;;;;;5088222;28;20424;-55
2024/03/16 06:35:33;;;;;;;0.40;0.20;;;10.10;99.90;;;;;;5091733;28;20432;-54
2024/03/16 06:38:00;;;;;;;0.93;0.20;;;10.30;99.90;;;;;;5089104;28;20451;-53
2024/03/16 06:40:27;;;;;;;0.40;0.20;;;10.20;99.90;;;;;;5091142;28;20552;-53
2024/03/16 06:42:54;;;;;;;0.40;0.10;;;10.20;99.90;;;;;;5088857;28;20511;-50
2024/03/16 06:45:21;;;;;;;0.40;0.10;;;10.30;99.90;;;;;;5088829;28;20465;-51
2024/03/16 06:47:48;;;;;;;0.30;0.10;;;10.40;99.90;;;;;;5110993;28;20433;-50
2024/03/16 06:50:15;;;;;;;0.30;0.10;;;10.40;99.90;;;;;;5088745;28;20469;-51
2024/03/16 06:52:42;;;;;;;0.85;0.20;;;10.60;99.90;;;;;;5090301;28;20435;-54
2024/03/16 06:55:09;;;;;;;0.40;0.10;;;10.60;99.90;;;;;;5089103;28;20513;-52
2024/03/16 06:57:36;;;;;;;0.40;0.10;;;10.70;99.90;;;;;;5090841;28;20485;-53
2024/03/16 07:00:04;;;;;;;0.40;0.10;;;10.70;99.90;;;;;;5086781;28;20837;-52
2024/03/16 07:02:31;;;;;;;0.38;0.10;;;10.70;99.90;;;;;;5088446;28;20422;-55
2024/03/16 07:05:00;;;;;;;0.70;0.10;;;10.60;99.90;;;;;;5091297;28;20430;-50
2024/03/16 07:07:28;;;;;;;1.20;0.10;;;10.60;99.90;;;;;;5094836;28;20496;-51
2024/03/16 07:09:55;;;;;;;0.50;0.20;;;10.50;99.90;;;;;;5087172;28;20416;-51
2024/03/16 07:12:23;;;;;;;0.60;0.10;;;10.50;99.90;;;;;;5087252;28;20688;-51
2024/03/16 07:14:50;;;;;;;1.30;0.10;;;10.50;99.90;;;;;;5081653;28;20421;-52
2024/03/16 07:17:17;;;;;;;0.30;0.10;;;10.60;99.90;;;;;;5098657;28;20691;-51
2024/03/16 07:19:44;;;;;;;0.70;0.10;;;10.70;99.90;;;;;;5098833;28;20457;-51
2024/03/16 07:22:12;;;;;;;0.40;0.10;;;10.70;99.90;;;;;;5097442;28;20408;-49
2024/03/16 07:24:39;;;;;;;0.80;0.10;;;10.80;99.90;;;;;;5095151;28;20677;-49
2024/03/16 07:27:07;;;;;;;0.50;0.13;;;10.60;99.90;;;;;;5098300;28;20429;-50
2024/03/16 07:29:34;;;;;;;1.00;0.20;;;10.70;99.90;;;;;;5080262;28;20855;-49
2024/03/16 07:32:01;;;;;;;0.40;0.20;;;10.80;99.90;;;;;;5080828;28;20417;-51
2024/03/16 07:34:28;;;;;;;0.40;0.10;;;10.80;99.90;;;;;;5095658;28;20481;-52
2024/03/16 07:36:58;;;;;;;0.87;0.20;;;10.80;99.90;;;;;;5087679;28;20418;-52
2024/03/16 07:39:25;;;;;;;0.40;0.20;;;10.80;99.90;;;;;;5089034;28;20536;-57
2024/03/16 07:41:53;;;;;;;0.60;0.20;;;10.80;99.90;;;;;;5086964;28;20508;-54
2024/03/16 07:44:20;;;;;;;1.30;0.20;;;10.80;99.90;;;;;;5095882;28;20443;-51
2024/03/16 07:46:48;;;;;;;0.40;0.20;;;10.80;99.90;;;;;;5088622;28;20463;-49
2024/03/16 07:49:15;;;;;;;0.50;0.20;;;10.60;99.90;;;;;;5085387;28;20421;-53
2024/03/16 07:51:43;;;;;;;0.80;0.20;;;10.60;99.90;;;;;;5090441;28;20745;-50
2024/03/16 07:54:12;;;;;;;0.80;0.30;;;10.50;99.90;;;;;;5095341;28;20854;-49
2024/03/16 07:56:39;;;;;;;0.70;0.20;;;10.50;99.90;;;;;;5099381;28;20826;-53
2024/03/16 07:59:09;;;;;;;0.40;0.20;;;10.50;99.90;;;;;;5098487;28;20420;-55
2024/03/16 08:01:36;;;;;;;0.50;0.20;;;10.60;99.90;;;;;;5099255;28;20679;-50
2024/03/16 08:04:03;;;;;;;0.40;0.20;;;10.70;99.90;;;;;;5098705;28;20411;-55
2024/03/16 08:06:30;;;;;;;0.40;0.20;;;10.80;99.90;;;;;;5135416;27;20421;-53
2024/03/16 08:08:57;;;;;;;1.00;0.30;;;10.70;99.90;;;;;;5120554;27;20435;-51
2024/03/16 08:11:24;;;;;;;0.50;0.20;;;10.70;99.90;;;;;;5113187;28;20416;-50
2024/03/16 08:13:51;;;;;;;0.50;0.20;;;10.70;99.90;;;;;;5120285;27;20430;-52
2024/03/16 08:16:18;;;;;;;1.50;0.20;;;10.80;99.90;;;;;;5138746;27;20422;-64
2024/03/16 08:18:46;;;;;;;0.70;0.20;;;10.80;99.90;;;;;;5138583;27;20414;-62
2024/03/16 08:21:14;;;;;;;0.40;0.20;;;10.80;99.90;;;;;;5121010;27;20414;-62
2024/03/16 08:23:42;;;;;;;0.80;0.10;;;10.80;99.90;;;;;;5119365;28;20519;-63
2024/03/16 08:26:09;;;;;;;0.47;0.20;;;10.80;99.90;;;;;;5108859;28;20426;-63
2024/03/16 08:28:36;;;;;;;0.43;0.20;;;10.80;99.90;;;;;;5102288;28;20713;-64
2024/03/16 08:31:04;;;;;;;0.70;0.20;;;10.80;99.90;;;;;;5107889;27;20771;-63
2024/03/16 08:33:32;;;;;;;1.50;0.20;;;10.80;99.90;;;;;;5121610;27;20419;-63
2024/03/16 08:35:59;;;;;;;0.80;0.20;;;10.90;99.90;;;;;;5120685;27;20482;-64
2024/03/16 08:38:26;;;;;;;0.40;0.20;;;11.10;99.90;;;;;;5136558;27;20486;-60
2024/03/16 08:40:54;;;;;;;0.40;0.20;;;11.20;99.90;;;;;;5120848;27;20490;-59
2024/03/16 08:43:21;;;;;;;0.80;0.20;;;11.30;99.90;;;;;;5119693;27;20522;-60
2024/03/16 08:45:48;;;;;;;0.60;0.20;;;11.50;99.90;;;;;;5129482;27;20422;-60
2024/03/16 08:48:15;;;;;;;0.40;0.20;;;11.50;99.90;;;;;;5118406;27;20479;-61
2024/03/16 08:50:42;;;;;;;0.55;0.20;;;11.60;99.90;;;;;;5119299;27;20426;-61
2024/03/16 08:53:10;;;;;;;0.40;0.10;;;11.70;99.90;;;;;;5121168;27;20475;-60
2024/03/16 08:55:37;;;;;;;0.30;0.10;;;11.80;99.90;;;;;;5110303;28;20428;-60
2024/03/16 08:58:04;;;;;;;0.80;0.20;;;11.80;99.90;;;;;;5103836;27;20419;-60
2024/03/16 09:00:31;;;;;;;0.30;0.10;;;11.90;99.90;;;;;;5136225;27;20414;-60
2024/03/16 09:02:59;;;;;;;1.10;0.20;;;12.10;99.90;;;;;;5118796;27;20431;-60
2024/03/16 09:05:26;;;;;;;0.38;0.10;;;12.30;99.90;;;;;;5127597;27;20435;-60
2024/03/16 09:07:53;;;;;;;1.00;0.10;;;12.60;99.90;;;;;;5092879;28;20496;-60
2024/03/16 09:10:20;;;;;;;0.50;0.10;;;12.60;99.90;;;;;;5099600;28;20413;-60
2024/03/16 09:12:47;;;;;;;0.30;0.10;;;12.50;99.90;;;;;;5100477;28;20412;-61
2024/03/16 09:15:15;;;;;;;0.30;0.10;;;12.50;99.90;;;;;;5093105;28;20480;-61
2024/03/16 09:17:42;;;;;;;1.10;0.10;;;12.40;99.90;;;;;;5088364;28;20437;-62
2024/03/16 09:20:10;;;;;;;2.00;0.10;;;12.60;99.90;;;;;;5089023;28;20436;-59
2024/03/16 09:22:37;;;;;;;0.50;0.10;;;12.70;99.90;;;;;;5118016;28;20424;-61
2024/03/16 09:25:05;;;;;;;0.30;0.10;;;12.80;99.90;;;;;;5114226;28;20472;-61
2024/03/16 09:27:32;;;;;;;0.40;0.20;;;12.70;99.90;;;;;;5100750;28;20439;-60
2024/03/16 09:30:00;;;;;;;0.30;0.20;;;12.60;99.90;;;;;;5097864;28;20518;-60
2024/03/16 09:32:27;;;;;;;0.40;0.10;;;12.90;99.90;;;;;;5114367;28;20436;-60
2024/03/16 09:34:54;;;;;;;0.47;0.10;;;13.00;99.90;;;;;;5114376;28;20497;-60
2024/03/16 09:37:21;;;;;;;0.45;0.13;;;12.90;99.90;;;;;;5079587;28;20425;-60
2024/03/16 09:39:48;;;;;;;0.40;0.20;;;13.10;99.90;;;;;;5093458;28;20433;-61
2024/03/16 09:42:15;;;;;;;0.30;0.10;;;13.30;99.90;;;;;;5099863;28;20416;-61
2024/03/16 09:44:42;;;;;;;0.30;0.10;;;13.40;90.10;;;;;;5109594;28;20440;-61
2024/03/16 09:47:10;;;;;;;0.30;0.10;;;13.60;63.80;;;;;;5097408;28;20722;-60
2024/03/16 09:49:37;;;;;;;0.80;0.20;;;13.60;60.00;;;;;;5113822;28;20496;-59
2024/03/16 09:52:04;;;;;;;0.50;0.20;;;13.50;81.50;;;;;;5085182;28;20441;-59
2024/03/16 09:54:32;;;;;;;0.80;0.10;;;13.30;72.40;;;;;;5088241;28;20466;-59
2024/03/16 09:56:59;;;;;;;0.40;0.10;;;13.40;82.70;;;;;;5096306;28;20577;-60
2024/03/16 09:59:26;;;;;;;0.40;0.10;;;13.60;76.00;;;;;;5087425;28;20522;-60
2024/03/16 10:01:53;;;;;;;0.30;0.10;;;13.70;43.60;;;;;;5088004;28;20437;-60
2024/03/16 10:04:22;;;;;;;0.43;0.20;;;14.00;29.60;;;;;;5097334;27;20442;-59
2024/03/16 10:06:49;;;;;;;0.70;0.20;;;14.10;1.00;;;;;;5121702;27;20435;-60
2024/03/16 10:09:17;;;;;;;0.30;0.10;;;14.20;18.70;;;;;;5118499;27;20512;-60
2024/03/16 10:11:44;;;;;;;0.43;0.20;;;14.10;3.40;;;;;;5123648;27;20519;-60
2024/03/16 10:14:11;;;;;;;0.30;0.10;;;14.00;17.10;;;;;;5119962;27;20947;-60
2024/03/16 10:16:40;;;;;;;0.30;0.10;;;13.90;13.20;;;;;;5113072;27;20417;-60
2024/03/16 10:19:07;;;;;;;0.30;0.10;;;13.90;20.90;;;;;;5118662;27;20478;-59
2024/03/16 10:21:34;;;;;;;1.02;0.10;;;14.00;12.00;;;;;;5120707;27;20435;-59
2024/03/16 10:24:02;;;;;;;0.40;0.10;;;14.20;1.00;;;;;;5111253;27;20429;-59
2024/03/16 10:26:30;;;;;;;0.30;0.10;;;14.40;1.00;;;;;;5112013;27;20724;-59
2024/03/16 10:28:59;;;;;;;0.40;0.20;;;14.50;1.00;;;;;;5111182;27;20515;-60
2024/03/16 10:31:29;;;;;;;0.40;0.10;;;14.60;1.00;;;;;;5104304;27;20493;-63
2024/03/16 10:33:57;;;;;;;0.30;0.10;;;14.70;1.00;;;;;;5104357;27;20509;-60
2024/03/16 10:36:24;;;;;;;0.40;0.10;;;14.70;1.00;;;;;;5119235;27;20756;-60
2024/03/16 10:38:53;;;;;;;0.30;0.10;;;15.00;1.00;;;;;;5109896;27;20481;-60
2024/03/16 10:41:20;;;;;;;0.30;0.10;;;15.10;1.00;;;;;;5115681;27;20430;-60
2024/03/16 10:43:47;;;;;;;0.30;0.10;;;15.00;1.00;;;;;;5109964;27;20499;-61
2024/03/16 10:46:15;;;;;;;0.40;0.10;;;14.90;99.90;;;;;;5107817;27;20426;-60
2024/03/16 10:48:43;;;;;;;0.30;0.10;;;14.70;99.90;;;;;;5110294;27;20485;-60
2024/03/16 10:51:10;;;;;;;0.40;0.10;;;14.70;99.90;;;;;;5116388;27;20460;-60
2024/03/16 10:53:38;;;;;;;0.30;0.10;;;14.70;1.00;;;;;;5117235;27;20435;-60
2024/03/16 10:56:06;;;;;;;0.32;0.10;;;14.60;99.90;;;;;;5120470;27;20506;-60
2024/03/16 10:58:33;;;;;;;0.30;0.20;;;14.50;1.00;;;;;;5107422;27;20426;-60
2024/03/16 11:01:02;;;;;;;0.30;0.10;;;14.60;1.00;;;;;;5116635;27;20480;-60
2024/03/16 11:03:31;;;;;;;0.30;0.10;;;14.60;99.90;;;;;;5104994;27;20448;-60
2024/03/16 11:06:02;;;;;;;0.30;0.10;;;14.60;1.00;;;;;;5118734;27;20428;-59
2024/03/16 11:08:37;;;;;;;0.30;0.10;;;14.40;1.00;;;;;;5120783;27;20499;-60
2024/03/16 11:11:04;;;;;;;0.30;0.10;;;14.30;99.90;;;;;;5121129;27;20591;-59
2024/03/16 11:13:31;;;;;;;0.30;0.10;;;14.20;59.40;;;;;;5120675;27;20417;-60
2024/03/16 11:15:58;;;;;;;0.30;0.10;;;14.60;1.00;;;;;;5119583;27;20425;-60
2024/03/16 11:18:47;;;;;;;0.30;0.10;;;14.80;99.90;;;;;;5118763;27;20419;-61
2024/03/16 11:21:16;;;;;;;0.30;0.10;;;14.90;1.00;;;;;;5134905;27;20511;-60
2024/03/16 11:23:43;;;;;;;0.30;0.10;;;14.90;1.00;;;;;;5116141;27;20433;-62
2024/03/16 11:26:38;;;;;;;0.30;0.10;;;14.80;1.00;;;;;;5110888;27;20508;-60
2024/03/16 11:29:08;;;;;;;0.40;0.10;;;14.60;1.00;;;;;;5133420;27;20459;-60
2024/03/16 11:31:37;;;;;;;0.50;0.20;;;15.10;99.90;;;;;;5113560;27;20425;-60
2024/03/16 11:34:04;;;;;;;0.30;0.10;;;15.50;99.90;;;;;;5107851;27;20597;-58
2024/03/16 11:36:32;;;;;;;0.30;0.10;;;15.90;1.00;;;;;;5120047;27;20424;-59
2024/03/16 11:39:10;;;;;;;0.70;0.10;;;16.10;1.00;;;;;;5117893;27;20424;-60
2024/03/16 11:41:42;;;;;;;0.30;0.10;;;16.30;1.00;;;;;;5105056;28;20676;-60
2024/03/16 11:44:09;;;;;;;0.50;0.10;;;16.40;1.00;;;;;;5110045;27;20417;-59
2024/03/16 11:46:36;;;;;;;0.40;0.10;;;16.30;1.00;;;;;;5122497;27;20772;-60
2024/03/16 11:49:03;;;;;;;1.00;0.10;;;15.70;1.00;;;;;;5118343;27;20722;-59
2024/03/16 11:51:29;;;;;;;0.30;0.10;;;15.70;1.00;;;;;;5115697;27;20413;-60
2024/03/16 11:53:56;;;;;;;0.30;0.10;;;15.90;1.00;;;;;;5116809;27;20827;-60
2024/03/16 11:56:22;;;;;;;0.90;0.10;;;16.20;1.00;;;;;;5118309;27;20424;-59
2024/03/16 11:58:50;;;;;;;0.30;0.10;;;16.10;99.90;;;;;;5104541;27;20892;-59
2024/03/16 12:01:18;;;;;;;0.40;0.10;;;16.10;99.90;;;;;;5116882;27;20579;-59
2024/03/16 12:03:46;;;;;;;0.80;0.20;;;16.50;99.90;;;;;;5119120;27;20568;-59
2024/03/16 12:06:12;;;;;;;0.50;0.20;;;16.80;99.90;;;;;;5119320;27;20487;-60
2024/03/16 12:08:39;;;;;;;0.70;0.10;;;17.10;99.90;;;;;;5115583;28;20522;-60
2024/03/16 12:11:07;;;;;;;0.60;0.20;;;17.30;99.90;;;;;;5116940;27;20759;-60
2024/03/16 12:13:35;;;;;;;0.70;0.10;;;17.40;99.90;;;;;;5117053;27;20494;-60
2024/03/16 12:16:01;;;;;;;0.30;0.10;;;17.20;99.90;;;;;;5119861;27;20943;-59
2024/03/16 12:18:28;;;;;;;0.30;0.10;;;16.70;99.90;;;;;;5115549;27;20418;-60
2024/03/16 12:20:54;;;;;;;0.30;0.10;;;16.40;99.90;;;;;;5120968;27;20429;-61
2024/03/16 12:23:21;;;;;;;0.40;0.10;;;16.20;99.90;;;;;;5112301;27;20435;-59
2024/03/16 12:25:48;;;;;;;0.40;0.10;;;16.10;99.90;;;;;;5108208;27;20426;-60
2024/03/16 12:28:15;;;;;;;0.40;0.10;;;15.90;99.90;;;;;;5110103;27;20523;-60
2024/03/16 12:30:41;;;;;;;0.40;0.20;;;15.70;99.90;;;;;;5116696;27;20428;-60
2024/03/16 12:33:08;;;;;;;0.40;0.10;;;15.60;99.90;;;;;;5118840;27;20430;-59
2024/03/16 12:35:35;;;;;;;0.40;0.20;;;15.80;1.00;;;;;;5115913;27;20436;-60
2024/03/16 12:38:03;;;;;;;0.40;0.10;;;15.80;1.00;;;;;;5120012;27;20806;-59
2024/03/16 12:40:29;;;;;;;0.60;0.20;;;16.10;99.90;;;;;;5115196;27;20508;-60
2024/03/16 12:42:56;;;;;;;0.30;0.10;;;16.10;99.90;;;;;;5119471;27;20500;-61
2024/03/16 12:45:22;;;;;;;0.70;0.20;;;16.10;99.90;;;;;;5118985;27;20425;-59
2024/03/16 12:47:49;;;;;;;0.30;0.10;;;16.00;99.90;;;;;;5120108;27;20413;-59
2024/03/16 12:50:16;;;;;;;0.30;0.20;;;15.90;99.90;;;;;;5118030;27;20432;-59